sensor_id;sensor_type;location;lat;lon;timestamp;P1;durP1;ratioP1;P2;durP2;ratioP2
79122;SDS011;68526;44.600;26.032;2024-03-17T00:00:06;43.53;;;28.70;;
79122;SDS011;68526;44.600;26.032;2024-03-17T00:00:25;44.50;;;29.00;;
79122;SDS011;68526;44.600;26.032;2024-03-17T00:00:41;44.67;;;29.10;;
79122;SDS011;68526;44.600;26.032;2024-03-17T00:00:59;45.92;;;28.42;;
79122;SDS011;68526;44.600;26.032;2024-03-17T00:01:17;45.38;;;29.67;;
79122;SDS011;68526;44.600;26.032;2024-03-17T00:01:33;47.42;;;30.40;;
79122;SDS011;68526;44.600;26.032;2024-03-17T00:01:49;49.97;;;29.80;;
79122;SDS011;68526;44.600;26.032;2024-03-17T00:02:05;46.28;;;29.33;;
79122;SDS011;68526;44.600;26.032;2024-03-17T00:02:21;46.65;;;30.35;;
79122;SDS011;68526;44.600;26.032;2024-03-17T00:02:38;48.78;;;31.13;;
79122;SDS011;68526;44.600;26.032;2024-03-17T00:02:54;44.92;;;29.20;;
79122;SDS011;68526;44.600;26.032;2024-03-17T00:03:10;47.50;;;28.95;;
79122;SDS011;68526;44.600;26.032;2024-03-17T00:03:27;48.92;;;29.83;;
79122;SDS011;68526;44.600;26.032;2024-03-17T00:03:43;46.38;;;30.33;;
79122;SDS011;68526;44.600;26.032;2024-03-17T00:03:59;46.63;;;30.67;;
79122;SDS011;68526;44.600;26.032;2024-03-17T00:04:15;46.22;;;30.10;;
79122;SDS011;68526;44.600;26.032;2024-03-17T00:04:31;45.15;;;30.25;;
79122;SDS011;68526;44.600;26.032;2024-03-17T00:04:47;46.35;;;29.88;;
79122;SDS011;68526;44.600;26.032;2024-03-17T00:05:04;44.35;;;28.52;;
79122;SDS011;68526;44.600;26.032;2024-03-17T00:05:20;46.33;;;28.55;;
79122;SDS011;68526;44.600;26.032;2024-03-17T00:05:38;46.20;;;29.67;;
79122;SDS011;68526;44.600;26.032;2024-03-17T00:05:57;48.47;;;30.50;;
79122;SDS011;68526;44.600;26.032;2024-03-17T00:06:13;48.70;;;31.00;;
79122;SDS011;68526;44.600;26.032;2024-03-17T00:06:30;45.80;;;29.65;;
79122;SDS011;68526;44.600;26.032;2024-03-17T00:06:46;45.30;;;29.13;;
79122;SDS011;68526;44.600;26.032;2024-03-17T00:07:02;47.38;;;29.75;;
79122;SDS011;68526;44.600;26.032;2024-03-17T00:07:18;49.22;;;29.75;;
79122;SDS011;68526;44.600;26.032;2024-03-17T00:07:34;48.40;;;30.52;;
79122;SDS011;68526;44.600;26.032;2024-03-17T00:07:51;48.10;;;30.88;;
79122;SDS011;68526;44.600;26.032;2024-03-17T00:08:07;49.13;;;30.23;;
79122;SDS011;68526;44.600;26.032;2024-03-17T00:08:23;50.70;;;30.33;;
79122;SDS011;68526;44.600;26.032;2024-03-17T00:08:39;49.88;;;30.35;;
79122;SDS011;68526;44.600;26.032;2024-03-17T00:08:56;49.25;;;30.58;;
79122;SDS011;68526;44.600;26.032;2024-03-17T00:09:13;48.15;;;31.05;;
79122;SDS011;68526;44.600;26.032;2024-03-17T00:09:29;47.47;;;31.10;;
79122;SDS011;68526;44.600;26.032;2024-03-17T00:09:45;48.92;;;31.15;;
79122;SDS011;68526;44.600;26.032;2024-03-17T00:10:02;49.25;;;30.25;;
79122;SDS011;68526;44.600;26.032;2024-03-17T00:10:20;49.85;;;30.00;;
79122;SDS011;68526;44.600;26.032;2024-03-17T00:10:36;50.15;;;31.23;;
79122;SDS011;68526;44.600;26.032;2024-03-17T00:10:52;49.53;;;30.70;;
79122;SDS011;68526;44.600;26.032;2024-03-17T00:11:08;49.92;;;30.20;;
79122;SDS011;68526;44.600;26.032;2024-03-17T00:11:24;49.20;;;30.00;;
79122;SDS011;68526;44.600;26.032;2024-03-17T00:11:40;49.13;;;30.63;;
79122;SDS011;68526;44.600;26.032;2024-03-17T00:11:56;49.38;;;31.30;;
79122;SDS011;68526;44.600;26.032;2024-03-17T00:12:13;49.10;;;31.10;;
79122;SDS011;68526;44.600;26.032;2024-03-17T00:12:29;50.90;;;31.73;;
79122;SDS011;68526;44.600;26.032;2024-03-17T00:12:46;49.45;;;31.67;;
79122;SDS011;68526;44.600;26.032;2024-03-17T00:13:02;45.75;;;30.67;;
79122;SDS011;68526;44.600;26.032;2024-03-17T00:13:19;47.08;;;30.38;;
79122;SDS011;68526;44.600;26.032;2024-03-17T00:13:35;47.50;;;29.95;;
79122;SDS011;68526;44.600;26.032;2024-03-17T00:13:51;45.50;;;29.70;;
79122;SDS011;68526;44.600;26.032;2024-03-17T00:14:07;47.95;;;30.42;;
79122;SDS011;68526;44.600;26.032;2024-03-17T00:14:24;48.10;;;30.58;;
79122;SDS011;68526;44.600;26.032;2024-03-17T00:14:43;46.40;;;29.60;;
79122;SDS011;68526;44.600;26.032;2024-03-17T00:15:00;44.85;;;29.08;;
79122;SDS011;68526;44.600;26.032;2024-03-17T00:15:16;47.28;;;29.85;;
79122;SDS011;68526;44.600;26.032;2024-03-17T00:15:33;49.88;;;30.13;;
79122;SDS011;68526;44.600;26.032;2024-03-17T00:15:49;48.60;;;30.70;;
79122;SDS011;68526;44.600;26.032;2024-03-17T00:16:06;49.00;;;31.58;;
79122;SDS011;68526;44.600;26.032;2024-03-17T00:16:22;46.88;;;31.08;;
79122;SDS011;68526;44.600;26.032;2024-03-17T00:16:38;48.50;;;31.45;;
79122;SDS011;68526;44.600;26.032;2024-03-17T00:16:54;49.53;;;31.27;;
79122;SDS011;68526;44.600;26.032;2024-03-17T00:17:11;50.38;;;31.50;;
79122;SDS011;68526;44.600;26.032;2024-03-17T00:17:27;49.97;;;31.98;;
79122;SDS011;68526;44.600;26.032;2024-03-17T00:17:43;51.80;;;32.08;;
79122;SDS011;68526;44.600;26.032;2024-03-17T00:17:59;50.95;;;31.83;;
79122;SDS011;68526;44.600;26.032;2024-03-17T00:18:15;48.90;;;31.70;;
79122;SDS011;68526;44.600;26.032;2024-03-17T00:18:33;51.42;;;31.90;;
79122;SDS011;68526;44.600;26.032;2024-03-17T00:18:49;51.05;;;32.40;;
79122;SDS011;68526;44.600;26.032;2024-03-17T00:19:05;50.75;;;32.42;;
79122;SDS011;68526;44.600;26.032;2024-03-17T00:19:21;52.03;;;32.28;;
79122;SDS011;68526;44.600;26.032;2024-03-17T00:19:39;51.17;;;31.73;;
79122;SDS011;68526;44.600;26.032;2024-03-17T00:19:55;52.70;;;32.92;;
79122;SDS011;68526;44.600;26.032;2024-03-17T00:20:12;52.50;;;33.50;;
79122;SDS011;68526;44.600;26.032;2024-03-17T00:20:34;52.50;;;33.88;;
79122;SDS011;68526;44.600;26.032;2024-03-17T00:20:50;51.83;;;33.53;;
79122;SDS011;68526;44.600;26.032;2024-03-17T00:21:06;51.83;;;34.00;;
79122;SDS011;68526;44.600;26.032;2024-03-17T00:21:22;50.78;;;33.55;;
79122;SDS011;68526;44.600;26.032;2024-03-17T00:21:41;54.28;;;33.20;;
79122;SDS011;68526;44.600;26.032;2024-03-17T00:21:57;55.55;;;33.67;;
79122;SDS011;68526;44.600;26.032;2024-03-17T00:22:13;54.53;;;34.08;;
79122;SDS011;68526;44.600;26.032;2024-03-17T00:22:29;56.70;;;34.77;;
79122;SDS011;68526;44.600;26.032;2024-03-17T00:22:46;57.58;;;34.50;;
79122;SDS011;68526;44.600;26.032;2024-03-17T00:23:03;55.53;;;35.15;;
79122;SDS011;68526;44.600;26.032;2024-03-17T00:23:21;54.90;;;34.63;;
79122;SDS011;68526;44.600;26.032;2024-03-17T00:23:37;52.72;;;33.28;;
79122;SDS011;68526;44.600;26.032;2024-03-17T00:23:53;53.67;;;34.13;;
79122;SDS011;68526;44.600;26.032;2024-03-17T00:24:09;59.42;;;36.10;;
79122;SDS011;68526;44.600;26.032;2024-03-17T00:24:28;57.38;;;36.40;;
79122;SDS011;68526;44.600;26.032;2024-03-17T00:24:50;58.75;;;35.60;;
79122;SDS011;68526;44.600;26.032;2024-03-17T00:25:06;56.20;;;35.05;;
79122;SDS011;68526;44.600;26.032;2024-03-17T00:25:24;56.10;;;34.83;;
79122;SDS011;68526;44.600;26.032;2024-03-17T00:25:41;56.63;;;35.20;;
79122;SDS011;68526;44.600;26.032;2024-03-17T00:25:57;55.90;;;34.97;;
79122;SDS011;68526;44.600;26.032;2024-03-17T00:26:14;55.35;;;35.47;;
79122;SDS011;68526;44.600;26.032;2024-03-17T00:26:30;58.13;;;37.17;;
79122;SDS011;68526;44.600;26.032;2024-03-17T00:26:46;57.63;;;36.55;;
79122;SDS011;68526;44.600;26.032;2024-03-17T00:27:04;58.63;;;35.72;;
79122;SDS011;68526;44.600;26.032;2024-03-17T00:27:20;59.40;;;35.60;;
79122;SDS011;68526;44.600;26.032;2024-03-17T00:27:37;55.15;;;35.10;;
79122;SDS011;68526;44.600;26.032;2024-03-17T00:27:56;55.33;;;34.95;;
79122;SDS011;68526;44.600;26.032;2024-03-17T00:28:13;58.15;;;35.28;;
79122;SDS011;68526;44.600;26.032;2024-03-17T00:28:29;58.78;;;35.97;;
79122;SDS011;68526;44.600;26.032;2024-03-17T00:28:45;56.92;;;35.63;;
79122;SDS011;68526;44.600;26.032;2024-03-17T00:29:03;58.55;;;36.65;;
79122;SDS011;68526;44.600;26.032;2024-03-17T00:29:19;58.40;;;36.42;;
79122;SDS011;68526;44.600;26.032;2024-03-17T00:29:35;57.20;;;35.45;;
79122;SDS011;68526;44.600;26.032;2024-03-17T00:29:51;58.40;;;35.50;;
79122;SDS011;68526;44.600;26.032;2024-03-17T00:30:07;61.90;;;36.47;;
79122;SDS011;68526;44.600;26.032;2024-03-17T00:30:27;60.70;;;37.28;;
79122;SDS011;68526;44.600;26.032;2024-03-17T00:30:43;57.17;;;36.45;;
79122;SDS011;68526;44.600;26.032;2024-03-17T00:30:59;56.97;;;36.25;;
79122;SDS011;68526;44.600;26.032;2024-03-17T00:31:18;58.38;;;36.38;;
79122;SDS011;68526;44.600;26.032;2024-03-17T00:31:34;58.60;;;36.88;;
79122;SDS011;68526;44.600;26.032;2024-03-17T00:31:50;55.70;;;35.65;;
79122;SDS011;68526;44.600;26.032;2024-03-17T00:32:06;56.35;;;35.38;;
79122;SDS011;68526;44.600;26.032;2024-03-17T00:32:22;56.78;;;35.63;;
79122;SDS011;68526;44.600;26.032;2024-03-17T00:32:39;57.03;;;36.00;;
79122;SDS011;68526;44.600;26.032;2024-03-17T00:32:55;57.20;;;36.50;;
79122;SDS011;68526;44.600;26.032;2024-03-17T00:33:13;57.13;;;36.95;;
79122;SDS011;68526;44.600;26.032;2024-03-17T00:33:30;57.70;;;36.42;;
79122;SDS011;68526;44.600;26.032;2024-03-17T00:33:46;57.92;;;35.75;;
79122;SDS011;68526;44.600;26.032;2024-03-17T00:34:03;59.70;;;36.83;;
79122;SDS011;68526;44.600;26.032;2024-03-17T00:34:19;58.58;;;36.50;;
79122;SDS011;68526;44.600;26.032;2024-03-17T00:34:36;56.85;;;36.05;;
79122;SDS011;68526;44.600;26.032;2024-03-17T00:34:52;55.47;;;36.38;;
79122;SDS011;68526;44.600;26.032;2024-03-17T00:35:09;55.30;;;35.47;;
79122;SDS011;68526;44.600;26.032;2024-03-17T00:35:29;58.78;;;36.22;;
79122;SDS011;68526;44.600;26.032;2024-03-17T00:35:45;59.45;;;36.67;;
79122;SDS011;68526;44.600;26.032;2024-03-17T00:36:01;58.78;;;36.40;;
79122;SDS011;68526;44.600;26.032;2024-03-17T00:36:18;58.88;;;36.20;;
79122;SDS011;68526;44.600;26.032;2024-03-17T00:36:34;58.08;;;36.78;;
79122;SDS011;68526;44.600;26.032;2024-03-17T00:36:50;58.33;;;36.65;;
79122;SDS011;68526;44.600;26.032;2024-03-17T00:37:06;57.08;;;36.38;;
79122;SDS011;68526;44.600;26.032;2024-03-17T00:37:23;54.53;;;35.80;;
79122;SDS011;68526;44.600;26.032;2024-03-17T00:37:40;53.67;;;35.38;;
79122;SDS011;68526;44.600;26.032;2024-03-17T00:37:56;55.53;;;36.30;;
79122;SDS011;68526;44.600;26.032;2024-03-17T00:38:13;56.53;;;35.83;;
79122;SDS011;68526;44.600;26.032;2024-03-17T00:38:29;54.40;;;34.05;;
79122;SDS011;68526;44.600;26.032;2024-03-17T00:38:45;55.75;;;35.15;;
79122;SDS011;68526;44.600;26.032;2024-03-17T00:39:01;59.65;;;36.67;;
79122;SDS011;68526;44.600;26.032;2024-03-17T00:39:18;58.92;;;36.47;;
79122;SDS011;68526;44.600;26.032;2024-03-17T00:39:34;55.10;;;34.70;;
79122;SDS011;68526;44.600;26.032;2024-03-17T00:39:51;55.33;;;33.70;;
79122;SDS011;68526;44.600;26.032;2024-03-17T00:40:07;53.78;;;34.00;;
79122;SDS011;68526;44.600;26.032;2024-03-17T00:40:28;56.10;;;34.28;;
79122;SDS011;68526;44.600;26.032;2024-03-17T00:40:45;56.05;;;34.65;;
79122;SDS011;68526;44.600;26.032;2024-03-17T00:41:02;56.10;;;35.35;;
79122;SDS011;68526;44.600;26.032;2024-03-17T00:41:18;58.15;;;35.85;;
79122;SDS011;68526;44.600;26.032;2024-03-17T00:41:36;58.05;;;36.40;;
79122;SDS011;68526;44.600;26.032;2024-03-17T00:41:52;57.13;;;36.20;;
79122;SDS011;68526;44.600;26.032;2024-03-17T00:42:08;56.23;;;35.23;;
79122;SDS011;68526;44.600;26.032;2024-03-17T00:42:25;56.15;;;34.65;;
79122;SDS011;68526;44.600;26.032;2024-03-17T00:42:41;57.80;;;35.63;;
79122;SDS011;68526;44.600;26.032;2024-03-17T00:42:57;55.60;;;35.70;;
79122;SDS011;68526;44.600;26.032;2024-03-17T00:43:13;57.22;;;35.00;;
79122;SDS011;68526;44.600;26.032;2024-03-17T00:43:29;58.15;;;34.63;;
79122;SDS011;68526;44.600;26.032;2024-03-17T00:43:45;56.55;;;34.80;;
79122;SDS011;68526;44.600;26.032;2024-03-17T00:44:02;56.50;;;35.20;;
79122;SDS011;68526;44.600;26.032;2024-03-17T00:44:18;55.45;;;34.30;;
79122;SDS011;68526;44.600;26.032;2024-03-17T00:44:34;55.03;;;33.72;;
79122;SDS011;68526;44.600;26.032;2024-03-17T00:44:51;54.33;;;33.10;;
79122;SDS011;68526;44.600;26.032;2024-03-17T00:45:08;52.85;;;33.42;;
79122;SDS011;68526;44.600;26.032;2024-03-17T00:45:25;50.03;;;32.20;;
79122;SDS011;68526;44.600;26.032;2024-03-17T00:45:41;50.65;;;32.40;;
79122;SDS011;68526;44.600;26.032;2024-03-17T00:45:57;52.55;;;33.70;;
79122;SDS011;68526;44.600;26.032;2024-03-17T00:46:14;53.15;;;34.35;;
79122;SDS011;68526;44.600;26.032;2024-03-17T00:46:30;52.53;;;34.30;;
79122;SDS011;68526;44.600;26.032;2024-03-17T00:46:46;52.33;;;34.08;;
79122;SDS011;68526;44.600;26.032;2024-03-17T00:47:02;54.35;;;34.15;;
79122;SDS011;68526;44.600;26.032;2024-03-17T00:47:18;55.53;;;34.00;;
79122;SDS011;68526;44.600;26.032;2024-03-17T00:47:34;56.63;;;35.17;;
79122;SDS011;68526;44.600;26.032;2024-03-17T00:47:50;57.05;;;36.03;;
79122;SDS011;68526;44.600;26.032;2024-03-17T00:48:06;56.75;;;36.60;;
79122;SDS011;68526;44.600;26.032;2024-03-17T00:48:24;55.65;;;35.58;;
79122;SDS011;68526;44.600;26.032;2024-03-17T00:48:40;50.65;;;33.22;;
79122;SDS011;68526;44.600;26.032;2024-03-17T00:48:58;50.42;;;32.13;;
79122;SDS011;68526;44.600;26.032;2024-03-17T00:49:15;52.65;;;33.78;;
79122;SDS011;68526;44.600;26.032;2024-03-17T00:49:31;53.40;;;35.17;;
79122;SDS011;68526;44.600;26.032;2024-03-17T00:49:47;52.60;;;34.90;;
79122;SDS011;68526;44.600;26.032;2024-03-17T00:50:05;56.65;;;35.60;;
79122;SDS011;68526;44.600;26.032;2024-03-17T00:50:23;54.78;;;34.22;;
79122;SDS011;68526;44.600;26.032;2024-03-17T00:50:40;52.97;;;33.80;;
79122;SDS011;68526;44.600;26.032;2024-03-17T00:50:56;52.75;;;33.15;;
79122;SDS011;68526;44.600;26.032;2024-03-17T00:51:13;55.90;;;33.92;;
79122;SDS011;68526;44.600;26.032;2024-03-17T00:51:30;55.83;;;35.63;;
79122;SDS011;68526;44.600;26.032;2024-03-17T00:51:46;51.70;;;35.20;;
79122;SDS011;68526;44.600;26.032;2024-03-17T00:52:04;54.72;;;34.35;;
79122;SDS011;68526;44.600;26.032;2024-03-17T00:52:21;57.60;;;33.80;;
79122;SDS011;68526;44.600;26.032;2024-03-17T00:52:37;53.05;;;32.92;;
79122;SDS011;68526;44.600;26.032;2024-03-17T00:52:54;51.15;;;32.72;;
79122;SDS011;68526;44.600;26.032;2024-03-17T00:53:10;51.13;;;32.45;;
79122;SDS011;68526;44.600;26.032;2024-03-17T00:53:27;53.90;;;33.88;;
79122;SDS011;68526;44.600;26.032;2024-03-17T00:53:44;53.97;;;34.05;;
79122;SDS011;68526;44.600;26.032;2024-03-17T00:54:00;53.05;;;33.38;;
79122;SDS011;68526;44.600;26.032;2024-03-17T00:54:16;54.67;;;33.72;;
79122;SDS011;68526;44.600;26.032;2024-03-17T00:54:34;53.35;;;33.15;;
79122;SDS011;68526;44.600;26.032;2024-03-17T00:54:50;52.65;;;33.28;;
79122;SDS011;68526;44.600;26.032;2024-03-17T00:55:07;52.75;;;33.55;;
79122;SDS011;68526;44.600;26.032;2024-03-17T00:55:25;53.70;;;33.15;;
79122;SDS011;68526;44.600;26.032;2024-03-17T00:55:42;54.58;;;34.10;;
79122;SDS011;68526;44.600;26.032;2024-03-17T00:55:58;52.28;;;33.33;;
79122;SDS011;68526;44.600;26.032;2024-03-17T00:56:16;50.28;;;33.05;;
79122;SDS011;68526;44.600;26.032;2024-03-17T00:56:32;51.03;;;33.95;;
79122;SDS011;68526;44.600;26.032;2024-03-17T00:56:48;52.45;;;33.63;;
79122;SDS011;68526;44.600;26.032;2024-03-17T00:57:04;53.25;;;33.95;;
79122;SDS011;68526;44.600;26.032;2024-03-17T00:57:20;53.35;;;34.83;;
79122;SDS011;68526;44.600;26.032;2024-03-17T00:57:37;53.13;;;34.35;;
79122;SDS011;68526;44.600;26.032;2024-03-17T00:57:53;50.33;;;33.38;;
79122;SDS011;68526;44.600;26.032;2024-03-17T00:58:10;51.85;;;32.53;;
79122;SDS011;68526;44.600;26.032;2024-03-17T00:58:26;52.55;;;32.55;;
79122;SDS011;68526;44.600;26.032;2024-03-17T00:58:42;50.78;;;33.00;;
79122;SDS011;68526;44.600;26.032;2024-03-17T00:58:59;48.60;;;32.50;;
79122;SDS011;68526;44.600;26.032;2024-03-17T00:59:16;49.33;;;32.78;;
79122;SDS011;68526;44.600;26.032;2024-03-17T00:59:32;50.58;;;33.00;;
79122;SDS011;68526;44.600;26.032;2024-03-17T00:59:49;52.38;;;33.30;;
79122;SDS011;68526;44.600;26.032;2024-03-17T01:00:06;55.65;;;34.95;;
79122;SDS011;68526;44.600;26.032;2024-03-17T01:00:25;57.33;;;35.45;;
79122;SDS011;68526;44.600;26.032;2024-03-17T01:00:41;56.00;;;35.05;;
79122;SDS011;68526;44.600;26.032;2024-03-17T01:00:57;54.00;;;34.95;;
79122;SDS011;68526;44.600;26.032;2024-03-17T01:01:13;53.78;;;34.20;;
79122;SDS011;68526;44.600;26.032;2024-03-17T01:01:29;53.63;;;33.10;;
79122;SDS011;68526;44.600;26.032;2024-03-17T01:01:45;51.15;;;33.22;;
79122;SDS011;68526;44.600;26.032;2024-03-17T01:02:02;53.17;;;34.03;;
79122;SDS011;68526;44.600;26.032;2024-03-17T01:02:18;54.30;;;33.97;;
79122;SDS011;68526;44.600;26.032;2024-03-17T01:02:34;51.07;;;34.20;;
79122;SDS011;68526;44.600;26.032;2024-03-17T01:02:50;53.20;;;34.25;;
79122;SDS011;68526;44.600;26.032;2024-03-17T01:03:07;52.83;;;34.17;;
79122;SDS011;68526;44.600;26.032;2024-03-17T01:03:23;53.50;;;35.28;;
79122;SDS011;68526;44.600;26.032;2024-03-17T01:03:39;52.67;;;33.75;;
79122;SDS011;68526;44.600;26.032;2024-03-17T01:03:56;52.28;;;33.38;;
79122;SDS011;68526;44.600;26.032;2024-03-17T01:04:12;52.47;;;34.55;;
79122;SDS011;68526;44.600;26.032;2024-03-17T01:04:28;51.92;;;34.00;;
79122;SDS011;68526;44.600;26.032;2024-03-17T01:04:45;53.67;;;33.75;;
79122;SDS011;68526;44.600;26.032;2024-03-17T01:05:01;54.17;;;33.65;;
79122;SDS011;68526;44.600;26.032;2024-03-17T01:05:20;53.75;;;33.78;;
79122;SDS011;68526;44.600;26.032;2024-03-17T01:05:37;56.17;;;34.72;;
79122;SDS011;68526;44.600;26.032;2024-03-17T01:05:57;53.28;;;34.15;;
79122;SDS011;68526;44.600;26.032;2024-03-17T01:06:14;52.88;;;34.33;;
79122;SDS011;68526;44.600;26.032;2024-03-17T01:06:30;54.17;;;34.45;;
79122;SDS011;68526;44.600;26.032;2024-03-17T01:06:48;55.15;;;35.13;;
79122;SDS011;68526;44.600;26.032;2024-03-17T01:07:04;56.65;;;34.88;;
79122;SDS011;68526;44.600;26.032;2024-03-17T01:07:20;56.55;;;35.05;;
79122;SDS011;68526;44.600;26.032;2024-03-17T01:07:36;56.63;;;35.03;;
79122;SDS011;68526;44.600;26.032;2024-03-17T01:07:52;56.85;;;34.55;;
79122;SDS011;68526;44.600;26.032;2024-03-17T01:08:08;56.10;;;34.70;;
79122;SDS011;68526;44.600;26.032;2024-03-17T01:08:24;54.05;;;34.03;;
79122;SDS011;68526;44.600;26.032;2024-03-17T01:08:41;51.75;;;33.58;;
79122;SDS011;68526;44.600;26.032;2024-03-17T01:08:59;51.92;;;33.47;;
79122;SDS011;68526;44.600;26.032;2024-03-17T01:09:15;52.63;;;32.65;;
79122;SDS011;68526;44.600;26.032;2024-03-17T01:09:31;54.88;;;33.38;;
79122;SDS011;68526;44.600;26.032;2024-03-17T01:09:47;54.17;;;33.35;;
79122;SDS011;68526;44.600;26.032;2024-03-17T01:10:03;55.08;;;33.45;;
79122;SDS011;68526;44.600;26.032;2024-03-17T01:10:23;52.85;;;32.90;;
79122;SDS011;68526;44.600;26.032;2024-03-17T01:10:39;53.28;;;33.03;;
79122;SDS011;68526;44.600;26.032;2024-03-17T01:10:57;55.80;;;34.10;;
79122;SDS011;68526;44.600;26.032;2024-03-17T01:11:14;54.42;;;34.30;;
79122;SDS011;68526;44.600;26.032;2024-03-17T01:11:31;52.53;;;34.05;;
79122;SDS011;68526;44.600;26.032;2024-03-17T01:11:47;52.83;;;33.05;;
79122;SDS011;68526;44.600;26.032;2024-03-17T01:12:04;52.22;;;32.67;;
79122;SDS011;68526;44.600;26.032;2024-03-17T01:12:21;52.78;;;33.88;;
79122;SDS011;68526;44.600;26.032;2024-03-17T01:12:37;54.50;;;35.60;;
79122;SDS011;68526;44.600;26.032;2024-03-17T01:12:53;53.13;;;34.50;;
79122;SDS011;68526;44.600;26.032;2024-03-17T01:13:09;52.20;;;32.77;;
79122;SDS011;68526;44.600;26.032;2024-03-17T01:13:25;50.70;;;32.97;;
79122;SDS011;68526;44.600;26.032;2024-03-17T01:13:41;51.15;;;32.78;;
79122;SDS011;68526;44.600;26.032;2024-03-17T01:13:58;51.78;;;32.10;;
79122;SDS011;68526;44.600;26.032;2024-03-17T01:14:14;52.10;;;32.85;;
79122;SDS011;68526;44.600;26.032;2024-03-17T01:14:30;51.20;;;33.05;;
79122;SDS011;68526;44.600;26.032;2024-03-17T01:14:48;52.80;;;33.00;;
79122;SDS011;68526;44.600;26.032;2024-03-17T01:15:04;56.95;;;34.38;;
79122;SDS011;68526;44.600;26.032;2024-03-17T01:15:22;52.15;;;33.67;;
79122;SDS011;68526;44.600;26.032;2024-03-17T01:15:39;50.17;;;32.70;;
79122;SDS011;68526;44.600;26.032;2024-03-17T01:15:55;51.80;;;32.72;;
79122;SDS011;68526;44.600;26.032;2024-03-17T01:16:11;51.90;;;32.65;;
79122;SDS011;68526;44.600;26.032;2024-03-17T01:16:27;53.08;;;33.38;;
79122;SDS011;68526;44.600;26.032;2024-03-17T01:16:43;52.65;;;32.92;;
79122;SDS011;68526;44.600;26.032;2024-03-17T01:17:00;47.97;;;32.05;;
79122;SDS011;68526;44.600;26.032;2024-03-17T01:17:19;51.25;;;33.50;;
79122;SDS011;68526;44.600;26.032;2024-03-17T01:17:36;52.25;;;33.67;;
79122;SDS011;68526;44.600;26.032;2024-03-17T01:17:52;50.45;;;32.58;;
79122;SDS011;68526;44.600;26.032;2024-03-17T01:18:09;49.35;;;32.55;;
79122;SDS011;68526;44.600;26.032;2024-03-17T01:18:25;50.83;;;32.30;;
79122;SDS011;68526;44.600;26.032;2024-03-17T01:18:41;54.85;;;32.90;;
79122;SDS011;68526;44.600;26.032;2024-03-17T01:18:58;51.08;;;32.90;;
79122;SDS011;68526;44.600;26.032;2024-03-17T01:19:14;50.72;;;33.05;;
79122;SDS011;68526;44.600;26.032;2024-03-17T01:19:31;53.38;;;33.75;;
79122;SDS011;68526;44.600;26.032;2024-03-17T01:19:47;51.72;;;33.53;;
79122;SDS011;68526;44.600;26.032;2024-03-17T01:20:03;54.60;;;33.70;;
79122;SDS011;68526;44.600;26.032;2024-03-17T01:20:21;55.58;;;34.00;;
79122;SDS011;68526;44.600;26.032;2024-03-17T01:20:38;55.70;;;33.60;;
79122;SDS011;68526;44.600;26.032;2024-03-17T01:20:54;53.10;;;32.97;;
79122;SDS011;68526;44.600;26.032;2024-03-17T01:21:10;51.10;;;33.00;;
79122;SDS011;68526;44.600;26.032;2024-03-17T01:21:27;53.08;;;32.78;;
79122;SDS011;68526;44.600;26.032;2024-03-17T01:21:43;53.05;;;32.85;;
79122;SDS011;68526;44.600;26.032;2024-03-17T01:21:59;51.85;;;32.75;;
79122;SDS011;68526;44.600;26.032;2024-03-17T01:22:16;51.33;;;32.78;;
79122;SDS011;68526;44.600;26.032;2024-03-17T01:22:32;49.60;;;32.03;;
79122;SDS011;68526;44.600;26.032;2024-03-17T01:22:48;52.35;;;33.50;;
79122;SDS011;68526;44.600;26.032;2024-03-17T01:23:04;54.67;;;33.80;;
79122;SDS011;68526;44.600;26.032;2024-03-17T01:23:21;51.22;;;32.38;;
79122;SDS011;68526;44.600;26.032;2024-03-17T01:23:37;51.53;;;33.53;;
79122;SDS011;68526;44.600;26.032;2024-03-17T01:23:53;51.50;;;33.67;;
79122;SDS011;68526;44.600;26.032;2024-03-17T01:24:09;49.17;;;32.58;;
79122;SDS011;68526;44.600;26.032;2024-03-17T01:24:25;50.17;;;32.83;;
79122;SDS011;68526;44.600;26.032;2024-03-17T01:24:46;53.38;;;34.28;;
79122;SDS011;68526;44.600;26.032;2024-03-17T01:25:04;54.08;;;34.10;;
79122;SDS011;68526;44.600;26.032;2024-03-17T01:25:21;51.00;;;33.08;;
79122;SDS011;68526;44.600;26.032;2024-03-17T01:25:37;50.33;;;33.10;;
79122;SDS011;68526;44.600;26.032;2024-03-17T01:25:53;51.42;;;32.95;;
79122;SDS011;68526;44.600;26.032;2024-03-17T01:26:11;49.05;;;31.83;;
79122;SDS011;68526;44.600;26.032;2024-03-17T01:26:27;46.20;;;30.92;;
79122;SDS011;68526;44.600;26.032;2024-03-17T01:26:43;48.22;;;31.63;;
79122;SDS011;68526;44.600;26.032;2024-03-17T01:27:00;49.05;;;31.67;;
79122;SDS011;68526;44.600;26.032;2024-03-17T01:27:16;48.95;;;32.20;;
79122;SDS011;68526;44.600;26.032;2024-03-17T01:27:32;51.63;;;34.17;;
79122;SDS011;68526;44.600;26.032;2024-03-17T01:27:48;53.70;;;34.88;;
79122;SDS011;68526;44.600;26.032;2024-03-17T01:28:05;56.08;;;34.40;;
79122;SDS011;68526;44.600;26.032;2024-03-17T01:28:22;53.53;;;33.17;;
79122;SDS011;68526;44.600;26.032;2024-03-17T01:28:38;50.97;;;32.60;;
79122;SDS011;68526;44.600;26.032;2024-03-17T01:28:55;52.53;;;32.85;;
79122;SDS011;68526;44.600;26.032;2024-03-17T01:29:11;54.33;;;33.47;;
79122;SDS011;68526;44.600;26.032;2024-03-17T01:29:27;53.78;;;34.10;;
79122;SDS011;68526;44.600;26.032;2024-03-17T01:29:43;52.67;;;33.85;;
79122;SDS011;68526;44.600;26.032;2024-03-17T01:29:59;49.40;;;32.92;;
79122;SDS011;68526;44.600;26.032;2024-03-17T01:30:15;48.58;;;31.98;;
79122;SDS011;68526;44.600;26.032;2024-03-17T01:30:31;51.72;;;32.67;;
79122;SDS011;68526;44.600;26.032;2024-03-17T01:30:48;53.40;;;32.80;;
79122;SDS011;68526;44.600;26.032;2024-03-17T01:31:05;51.00;;;32.42;;
79122;SDS011;68526;44.600;26.032;2024-03-17T01:31:21;53.05;;;33.70;;
79122;SDS011;68526;44.600;26.032;2024-03-17T01:31:38;51.03;;;33.58;;
79122;SDS011;68526;44.600;26.032;2024-03-17T01:31:55;50.47;;;33.97;;
79122;SDS011;68526;44.600;26.032;2024-03-17T01:32:11;53.28;;;33.78;;
79122;SDS011;68526;44.600;26.032;2024-03-17T01:32:27;54.42;;;32.92;;
79122;SDS011;68526;44.600;26.032;2024-03-17T01:32:43;53.63;;;33.63;;
79122;SDS011;68526;44.600;26.032;2024-03-17T01:33:00;52.65;;;33.65;;
79122;SDS011;68526;44.600;26.032;2024-03-17T01:33:16;50.92;;;32.38;;
79122;SDS011;68526;44.600;26.032;2024-03-17T01:33:32;49.25;;;32.85;;
79122;SDS011;68526;44.600;26.032;2024-03-17T01:33:49;48.67;;;32.85;;
79122;SDS011;68526;44.600;26.032;2024-03-17T01:34:05;49.88;;;33.15;;
79122;SDS011;68526;44.600;26.032;2024-03-17T01:34:21;50.53;;;32.45;;
79122;SDS011;68526;44.600;26.032;2024-03-17T01:34:38;49.53;;;31.75;;
79122;SDS011;68526;44.600;26.032;2024-03-17T01:34:55;49.60;;;32.30;;
79122;SDS011;68526;44.600;26.032;2024-03-17T01:35:11;49.63;;;32.45;;
79122;SDS011;68526;44.600;26.032;2024-03-17T01:35:27;50.80;;;32.75;;
79122;SDS011;68526;44.600;26.032;2024-03-17T01:35:43;50.42;;;32.25;;